createdAt,value
2023-01-01T00:02:00.993Z,6.20
2023-01-01T00:04:28.861Z,5.30
2023-01-01T00:06:55.301Z,5.90
2023-01-01T00:09:40.408Z,4.90
2023-01-01T00:12:06.947Z,4.93
2023-01-01T00:14:33.340Z,6.00
2023-01-01T00:16:59.795Z,5.75
2023-01-01T00:19:26.243Z,4.40
2023-01-01T00:21:52.752Z,4.35
2023-01-01T00:24:19.125Z,4.68
2023-01-01T00:26:45.816Z,4.10
2023-01-01T00:29:12.200Z,4.20
2023-01-01T00:31:38.746Z,4.15
2023-01-01T00:34:05.218Z,3.80
2023-01-01T00:36:31.690Z,3.75
2023-01-01T00:38:58.086Z,3.63
2023-01-01T00:41:24.515Z,4.18
2023-01-01T00:43:50.967Z,4.10
2023-01-01T00:46:17.482Z,4.00
2023-01-01T00:48:44.022Z,3.88
2023-01-01T00:51:12.166Z,3.80
2023-01-01T00:53:38.583Z,3.95
2023-01-01T00:56:06.481Z,4.45
2023-01-01T00:58:33.077Z,4.45
2023-01-01T01:01:00.307Z,4.45
2023-01-01T01:03:30.232Z,4.70
2023-01-01T01:06:09.724Z,4.50
2023-01-01T01:08:37.799Z,5.10
2023-01-01T01:11:09.537Z,4.78
2023-01-01T01:13:36.286Z,5.68
2023-01-01T01:16:11.992Z,5.30
2023-01-01T01:18:38.462Z,6.03
2023-01-01T01:21:05.677Z,5.97
2023-01-01T01:23:33.049Z,5.60
2023-01-01T01:26:13.359Z,6.00
2023-01-01T01:28:45.372Z,6.25
2023-01-01T01:31:15.699Z,6.22
2023-01-01T01:33:46.101Z,5.63
2023-01-01T01:36:12.791Z,5.95
2023-01-01T01:38:39.399Z,6.10
2023-01-01T01:41:05.827Z,5.90
2023-01-01T01:43:32.088Z,5.97
2023-01-01T01:46:05.263Z,6.63
2023-01-01T01:48:35.109Z,6.75
2023-01-01T01:51:01.506Z,5.95
2023-01-01T01:53:30.046Z,6.32
2023-01-01T01:56:00.046Z,5.68
2023-01-01T01:58:27.915Z,5.72
2023-01-01T02:00:55.611Z,5.85
2023-01-01T02:03:26.349Z,6.20
2023-01-01T02:05:53.140Z,5.63
2023-01-01T02:08:19.634Z,5.68
2023-01-01T02:10:46.011Z,5.63
2023-01-01T02:13:12.679Z,5.10
2023-01-01T02:15:51.098Z,4.75
2023-01-01T02:18:23.349Z,5.07
2023-01-01T02:20:59.906Z,5.00
2023-01-01T02:23:55.405Z,5.57
2023-01-01T02:26:38.671Z,4.82
2023-01-01T02:29:11.740Z,4.72
2023-01-01T02:31:43.513Z,4.40
2023-01-01T02:34:12.799Z,4.93
2023-01-01T02:36:44.302Z,5.15
2023-01-01T02:39:10.850Z,4.80
2023-01-01T02:41:40.122Z,4.70
2023-01-01T02:46:33.582Z,5.03
2023-01-01T02:49:06.260Z,4.60
2023-01-01T02:51:55.710Z,4.65
2023-01-01T02:54:31.337Z,4.78
2023-01-01T02:57:22.471Z,5.00
2023-01-01T03:00:19.395Z,4.75
2023-01-01T03:03:13.383Z,4.72
2023-01-01T03:06:07.397Z,4.22
2023-01-01T03:08:58.385Z,4.13
2023-01-01T03:11:32.070Z,4.35
2023-01-01T03:14:07.716Z,4.15
2023-01-01T03:16:44.981Z,3.72
2023-01-01T03:19:17.310Z,4.07
2023-01-01T03:21:57.559Z,3.50
2023-01-01T03:24:32.795Z,3.50
2023-01-01T03:27:02.689Z,3.30
2023-01-01T03:29:32.161Z,4.10
2023-01-01T03:31:59.489Z,2.92
2023-01-01T03:34:33.229Z,3.15
2023-01-01T03:37:00.904Z,2.70
2023-01-01T03:39:31.433Z,2.85
2023-01-01T03:42:05.849Z,2.95
2023-01-01T03:44:49.263Z,2.83
2023-01-01T03:47:16.053Z,2.67
2023-01-01T03:49:43.265Z,2.85
2023-01-01T03:52:16.958Z,2.70
2023-01-01T03:54:45.152Z,2.47
2023-01-01T03:57:34.316Z,2.38
2023-01-01T04:00:22.031Z,2.45
2023-01-01T04:02:59.961Z,2.45
2023-01-01T04:05:27.062Z,2.10
2023-01-01T04:07:53.764Z,2.25
2023-01-01T04:10:20.465Z,2.42
2023-01-01T04:12:55.744Z,2.13
2023-01-01T04:15:24.912Z,2.08
2023-01-01T04:17:51.578Z,2.15
2023-01-01T04:20:18.061Z,2.65
2023-01-01T04:22:44.756Z,2.08
2023-01-01T04:25:12.053Z,2.22
2023-01-01T04:27:39.010Z,2.08
2023-01-01T04:30:07.288Z,2.40
2023-01-01T04:32:34.330Z,1.92
2023-01-01T04:35:00.814Z,2.20
2023-01-01T04:37:27.373Z,1.85
2023-01-01T04:39:53.777Z,1.80
2023-01-01T04:42:20.165Z,1.92
2023-01-01T04:44:46.561Z,1.90
2023-01-01T04:47:12.939Z,1.70
2023-01-01T04:49:39.342Z,1.73
2023-01-01T04:52:06.128Z,1.42
2023-01-01T04:54:32.498Z,1.80
2023-01-01T04:56:58.878Z,1.80
2023-01-01T04:59:25.310Z,1.88
2023-01-01T05:01:51.776Z,1.80
2023-01-01T05:04:18.270Z,1.63
2023-01-01T05:06:44.671Z,1.77
2023-01-01T05:09:11.688Z,1.40
2023-01-01T05:11:38.134Z,1.35
2023-01-01T05:14:05.230Z,1.85
2023-01-01T05:16:37.127Z,1.60
2023-01-01T05:19:05.037Z,1.80
2023-01-01T05:21:33.807Z,1.50
2023-01-01T05:24:02.566Z,1.65
2023-01-01T05:26:33.124Z,1.67
2023-01-01T05:29:00.742Z,1.90
2023-01-01T05:31:29.410Z,1.70
2023-01-01T05:33:57.291Z,1.70
2023-01-01T05:36:26.660Z,1.58
2023-01-01T05:38:53.129Z,1.80
2023-01-01T05:41:20.040Z,1.73
2023-01-01T05:43:46.665Z,1.42
2023-01-01T05:46:16.663Z,1.58
2023-01-01T05:48:43.693Z,1.60
2023-01-01T05:51:15.898Z,1.48
2023-01-01T05:53:44.433Z,1.45
2023-01-01T05:56:12.017Z,1.50
2023-01-01T05:58:38.810Z,1.42
2023-01-01T06:01:09.933Z,1.65
2023-01-01T06:03:37.059Z,1.38
2023-01-01T06:06:08.062Z,1.58
2023-01-01T06:08:34.648Z,1.25
2023-01-01T06:11:06.370Z,1.67
2023-01-01T06:13:33.279Z,1.33
2023-01-01T06:16:01.013Z,1.50
2023-01-01T06:18:30.458Z,1.80
2023-01-01T06:21:05.941Z,1.35
2023-01-01T06:23:32.375Z,1.75
2023-01-01T06:26:04.918Z,1.75
2023-01-01T06:31:02.205Z,1.50
2023-01-01T06:33:29.545Z,1.40
2023-01-01T06:35:56.224Z,1.33
2023-01-01T06:38:22.663Z,1.58
2023-01-01T06:40:57.100Z,1.60
2023-01-01T06:43:23.518Z,1.52
2023-01-01T06:46:06.235Z,1.38
2023-01-01T06:51:14.704Z,1.45
2023-01-01T06:53:41.239Z,1.80
2023-01-01T06:56:08.365Z,1.60
2023-01-01T06:58:35.282Z,1.60
2023-01-01T07:01:08.553Z,2.03
2023-01-01T07:03:35.424Z,1.48
2023-01-01T07:06:01.849Z,1.40
2023-01-01T07:08:28.651Z,1.70
2023-01-01T07:10:57.332Z,1.85
2023-01-01T07:13:25.034Z,1.52
2023-01-01T07:15:51.472Z,1.42
2023-01-01T07:18:18.929Z,1.80
2023-01-01T07:20:49.795Z,1.40
2023-01-01T07:23:16.184Z,1.75
2023-01-01T07:25:42.740Z,2.10
2023-01-01T07:28:09.246Z,1.60
2023-01-01T07:30:35.698Z,1.50
2023-01-01T07:33:02.089Z,1.50
2023-01-01T07:35:28.592Z,1.55
2023-01-01T07:37:55.022Z,1.45
2023-01-01T07:40:21.415Z,1.58
2023-01-01T07:42:47.925Z,1.40
2023-01-01T07:45:14.328Z,1.80
2023-01-01T07:47:40.707Z,1.45
2023-01-01T07:50:07.287Z,1.30
2023-01-01T07:52:33.723Z,1.38
2023-01-01T07:55:00.139Z,1.70
2023-01-01T07:57:26.554Z,1.55
2023-01-01T07:59:52.936Z,1.73
2023-01-01T08:02:19.458Z,1.98
2023-01-01T08:04:45.979Z,1.77
2023-01-01T08:07:12.498Z,1.63
2023-01-01T08:09:38.899Z,1.70
2023-01-01T08:12:05.500Z,1.40
2023-01-01T08:14:31.897Z,1.63
2023-01-01T08:16:58.277Z,1.95
2023-01-01T08:19:24.639Z,1.83
2023-01-01T08:21:51.116Z,1.65
2023-01-01T08:24:17.522Z,1.45
2023-01-01T08:26:43.908Z,1.67
2023-01-01T08:29:11.349Z,1.52
2023-01-01T08:31:37.791Z,1.63
2023-01-01T08:34:04.289Z,1.80
2023-01-01T08:36:30.902Z,1.60
2023-01-01T08:38:58.514Z,1.58
2023-01-01T08:41:24.905Z,1.95
2023-01-01T08:43:51.377Z,1.88
2023-01-01T08:46:17.803Z,1.40
2023-01-01T08:48:44.440Z,1.85
2023-01-01T08:51:11.083Z,2.03
2023-01-01T08:53:37.541Z,2.17
2023-01-01T08:56:06.639Z,2.13
2023-01-01T08:58:34.049Z,1.92
2023-01-01T09:01:00.485Z,2.10
2023-01-01T09:03:27.281Z,2.33
2023-01-01T09:05:54.128Z,2.15
2023-01-01T09:08:21.307Z,2.17
2023-01-01T09:10:48.219Z,2.42
2023-01-01T09:13:16.828Z,2.30
2023-01-01T09:15:43.303Z,2.10
2023-01-01T09:18:10.554Z,2.40
2023-01-01T09:20:37.591Z,2.42
2023-01-01T09:23:06.139Z,2.28
2023-01-01T09:25:33.426Z,2.30
2023-01-01T09:28:05.507Z,2.17
2023-01-01T09:30:31.970Z,2.72
2023-01-01T09:32:58.367Z,2.28
2023-01-01T09:35:24.862Z,2.42
2023-01-01T09:37:51.228Z,2.40
2023-01-01T09:40:33.520Z,2.60
2023-01-01T09:43:18.176Z,2.95
2023-01-01T09:46:00.640Z,2.55
2023-01-01T09:48:30.180Z,2.28
2023-01-01T09:50:58.251Z,3.33
2023-01-01T09:53:41.555Z,2.83
2023-01-01T09:56:13.850Z,2.25
2023-01-01T09:58:40.363Z,2.17
2023-01-01T10:01:16.329Z,2.40
2023-01-01T10:03:54.073Z,2.28
2023-01-01T10:06:34.266Z,2.20
2023-01-01T10:09:13.367Z,2.38
2023-01-01T10:11:45.770Z,2.05
2023-01-01T10:14:25.432Z,2.10
2023-01-01T10:16:55.240Z,2.35
2023-01-01T10:19:37.925Z,2.25
2023-01-01T10:22:08.431Z,2.38
2023-01-01T10:24:52.090Z,2.08
2023-01-01T10:27:27.829Z,1.75
2023-01-01T10:29:59.598Z,2.38
2023-01-01T10:32:35.712Z,2.63
2023-01-01T10:35:14.900Z,2.08
2023-01-01T10:37:41.958Z,1.70
2023-01-01T10:40:17.741Z,2.67
2023-01-01T10:42:50.053Z,2.00
2023-01-01T10:45:19.731Z,3.10
2023-01-01T10:48:23.738Z,2.50
2023-01-01T10:51:01.167Z,3.20
2023-01-01T10:53:50.833Z,2.55
2023-01-01T10:56:19.563Z,3.00
2023-01-01T10:58:57.458Z,3.05
2023-01-01T11:01:29.143Z,3.00
2023-01-01T11:04:02.591Z,3.28
2023-01-01T11:06:34.285Z,3.80
2023-01-01T11:09:03.572Z,3.53
2023-01-01T11:11:41.914Z,3.70
2023-01-01T11:14:19.485Z,3.75
2023-01-01T11:16:46.543Z,3.40
2023-01-01T11:19:30.863Z,3.55
2023-01-01T11:21:57.442Z,3.45
2023-01-01T11:24:28.791Z,4.10
2023-01-01T11:27:12.287Z,3.40
2023-01-01T11:29:38.700Z,3.85
2023-01-01T11:32:07.604Z,4.15
2023-01-01T11:34:37.039Z,4.72
2023-01-01T11:37:27.949Z,5.10
2023-01-01T11:39:56.481Z,5.43
2023-01-01T11:42:26.358Z,4.53
2023-01-01T11:44:54.945Z,4.38
2023-01-01T11:47:35.647Z,4.78
2023-01-01T11:50:14.056Z,4.20
2023-01-01T11:52:46.360Z,5.15
2023-01-01T11:55:28.498Z,4.95
2023-01-01T11:58:21.921Z,4.30
2023-01-01T12:00:51.746Z,4.68
2023-01-01T12:03:26.743Z,4.47
2023-01-01T12:05:59.057Z,5.72
2023-01-01T12:08:35.354Z,5.20
2023-01-01T12:11:07.600Z,5.25
2023-01-01T12:13:44.127Z,5.75
2023-01-01T12:16:14.467Z,5.25
2023-01-01T12:18:47.398Z,5.38
2023-01-01T12:21:26.723Z,5.70
2023-01-01T12:23:53.156Z,5.93
2023-01-01T12:26:31.577Z,5.55
2023-01-01T12:29:16.313Z,5.95
2023-01-01T12:32:11.170Z,6.10
2023-01-01T12:34:49.338Z,5.53
2023-01-01T12:37:36.316Z,6.10
2023-01-01T12:40:29.479Z,5.50
2023-01-01T12:43:02.612Z,5.57
2023-01-01T12:45:51.900Z,5.47
2023-01-01T12:48:27.396Z,5.57
2023-01-01T12:51:05.167Z,5.22
2023-01-01T12:54:06.194Z,5.60
2023-01-01T12:56:46.380Z,5.13
2023-01-01T12:59:22.398Z,5.13
2023-01-01T13:01:49.230Z,5.45
2023-01-01T13:04:20.425Z,4.50
2023-01-01T13:07:03.754Z,3.80
2023-01-01T13:09:34.438Z,4.38
2023-01-01T13:12:12.591Z,3.90
2023-01-01T13:14:40.380Z,3.53
2023-01-01T13:17:21.345Z,3.50
2023-01-01T13:19:59.487Z,4.15
2023-01-01T13:22:25.777Z,4.90
2023-01-01T13:25:05.974Z,4.78
2023-01-01T13:27:57.411Z,4.40
2023-01-01T13:30:36.636Z,3.55
2023-01-01T13:33:27.531Z,4.57
2023-01-01T13:36:09.595Z,4.85
2023-01-01T13:38:49.111Z,5.00
2023-01-01T13:41:30.924Z,4.13
2023-01-01T13:43:59.988Z,4.00
2023-01-01T13:46:41.637Z,4.18
2023-01-01T13:49:22.950Z,4.65
2023-01-01T13:52:14.333Z,3.65
2023-01-01T13:55:05.810Z,3.53
2023-01-01T13:57:55.946Z,4.00
2023-01-01T14:00:32.994Z,3.20
2023-01-01T14:03:01.259Z,3.20
2023-01-01T14:05:38.442Z,3.20
2023-01-01T14:08:09.964Z,3.45
2023-01-01T14:10:39.435Z,3.45
2023-01-01T14:13:05.809Z,4.22
2023-01-01T14:15:34.341Z,3.10
2023-01-01T14:18:02.578Z,3.95
2023-01-01T14:20:55.380Z,3.50
2023-01-01T14:23:34.095Z,3.28
2023-01-01T14:26:09.997Z,2.90
2023-01-01T14:28:36.551Z,3.17
2023-01-01T14:31:10.799Z,3.17
2023-01-01T14:33:38.179Z,3.00
2023-01-01T14:36:06.425Z,3.40
2023-01-01T14:38:35.022Z,3.08
2023-01-01T14:41:17.908Z,2.95
2023-01-01T14:43:46.453Z,2.70
2023-01-01T14:46:17.672Z,2.50
2023-01-01T14:48:50.696Z,2.80
2023-01-01T14:51:20.891Z,1.95
2023-01-01T14:53:48.372Z,2.70
2023-01-01T14:56:26.228Z,3.35
2023-01-01T14:58:53.058Z,3.20
2023-01-01T15:01:24.888Z,3.40
2023-01-01T15:03:59.213Z,2.85
2023-01-01T15:06:25.906Z,4.25
2023-01-01T15:08:53.059Z,3.92
2023-01-01T15:11:24.982Z,4.65
2023-01-01T15:13:56.829Z,4.30
2023-01-01T15:16:24.020Z,3.50
2023-01-01T15:18:53.118Z,3.33
2023-01-01T15:21:31.476Z,3.90
2023-01-01T15:24:03.691Z,3.42
2023-01-01T15:26:33.584Z,3.78
2023-01-01T15:29:00.349Z,3.63
2023-01-01T15:31:59.976Z,3.90
2023-01-01T15:34:31.385Z,5.65
2023-01-01T15:37:08.936Z,5.25
2023-01-01T15:39:48.449Z,3.75
2023-01-01T15:42:24.138Z,3.45
2023-01-01T15:44:50.564Z,3.40
2023-01-01T15:47:17.395Z,4.00
2023-01-01T15:49:43.778Z,2.80
2023-01-01T15:52:22.519Z,3.35
2023-01-01T15:54:49.018Z,3.72
2023-01-01T15:57:21.662Z,2.83
2023-01-01T15:59:50.491Z,3.30
2023-01-01T16:02:20.595Z,2.75
2023-01-01T16:04:48.240Z,2.72
2023-01-01T16:07:17.427Z,2.83
2023-01-01T16:09:43.787Z,3.22
2023-01-01T16:12:10.167Z,3.60
2023-01-01T16:14:36.538Z,3.60
2023-01-01T16:17:03.035Z,3.00
2023-01-01T16:19:30.769Z,4.35
2023-01-01T16:21:57.252Z,3.90
2023-01-01T16:24:24.405Z,3.70
2023-01-01T16:26:50.997Z,4.00
2023-01-01T16:29:17.502Z,3.85
2023-01-01T16:31:44.683Z,3.50
2023-01-01T16:34:14.001Z,2.72
2023-01-01T16:36:40.538Z,3.40
2023-01-01T16:39:06.986Z,3.20
2023-01-01T16:41:33.363Z,4.00
2023-01-01T16:43:59.742Z,4.20
2023-01-01T16:46:27.807Z,3.78
2023-01-01T16:48:54.277Z,3.30
2023-01-01T16:51:25.069Z,3.95
2023-01-01T16:53:51.424Z,3.75
2023-01-01T16:56:18.002Z,2.70
2023-01-01T16:58:49.685Z,2.97
2023-01-01T17:01:18.018Z,2.85
2023-01-01T17:03:44.525Z,3.47
2023-01-01T17:06:11.051Z,3.15
2023-01-01T17:08:38.712Z,2.95
2023-01-01T17:11:13.817Z,3.45
2023-01-01T17:13:41.199Z,3.10
2023-01-01T17:16:08.238Z,2.80
2023-01-01T17:19:13.802Z,3.40
2023-01-01T17:21:21.538Z,3.05
2023-01-01T17:23:48.008Z,3.40
2023-01-01T17:26:19.136Z,3.63
2023-01-01T17:28:46.567Z,3.67
2023-01-01T17:31:15.081Z,3.30
2023-01-01T17:33:42.068Z,3.20
2023-01-01T17:36:10.305Z,3.40
2023-01-01T17:38:36.923Z,3.55
2023-01-01T17:41:07.290Z,4.03
2023-01-01T17:43:35.142Z,4.68
2023-01-01T17:46:13.280Z,4.30
2023-01-01T17:48:40.818Z,3.40
2023-01-01T17:51:07.495Z,3.40
2023-01-01T17:53:34.060Z,3.05
2023-01-01T17:56:00.608Z,3.28
2023-01-01T17:58:32.096Z,3.22
2023-01-01T18:01:10.782Z,3.00
2023-01-01T18:03:37.964Z,3.30
2023-01-01T18:06:04.675Z,3.25
2023-01-01T18:08:32.918Z,3.33
2023-01-01T18:10:59.796Z,2.47
2023-01-01T18:13:27.034Z,3.10
2023-01-01T18:15:53.493Z,2.83
2023-01-01T18:18:19.918Z,3.08
2023-01-01T18:20:46.289Z,2.80
2023-01-01T18:23:12.735Z,2.63
2023-01-01T18:25:39.121Z,3.03
2023-01-01T18:28:06.956Z,2.92
2023-01-01T18:30:33.331Z,3.30
2023-01-01T18:32:59.702Z,2.88
2023-01-01T18:35:26.050Z,3.00
2023-01-01T18:37:52.415Z,3.05
2023-01-01T18:40:19.490Z,3.30
2023-01-01T18:42:52.141Z,3.38
2023-01-01T18:45:20.484Z,2.63
2023-01-01T18:47:47.407Z,3.08
2023-01-01T18:50:26.434Z,3.03
2023-01-01T18:53:01.410Z,2.95
2023-01-01T18:55:28.105Z,2.67
2023-01-01T18:57:59.034Z,3.08
2023-01-01T19:00:27.576Z,2.78
2023-01-01T19:03:12.053Z,2.72
2023-01-01T19:05:38.561Z,2.90
2023-01-01T19:08:07.902Z,2.53
2023-01-01T19:10:40.437Z,2.85
2023-01-01T19:15:55.185Z,2.78
2023-01-01T19:18:23.576Z,2.58
2023-01-01T19:20:56.115Z,2.90
2023-01-01T19:25:50.534Z,2.72
2023-01-01T19:28:16.795Z,3.17
2023-01-01T19:30:46.122Z,2.78
2023-01-01T19:33:13.218Z,2.45
2023-01-01T19:35:39.680Z,2.80
2023-01-01T19:38:06.133Z,3.08
2023-01-01T19:40:32.712Z,3.33
2023-01-01T19:42:59.070Z,3.30
2023-01-01T19:45:25.547Z,3.33
2023-01-01T19:47:51.934Z,3.10
2023-01-01T19:50:21.059Z,2.90
2023-01-01T19:52:47.526Z,3.40
2023-01-01T19:55:13.955Z,3.20
2023-01-01T19:57:40.326Z,3.33
2023-01-01T20:00:07.390Z,3.75
2023-01-01T20:02:49.759Z,2.90
2023-01-01T20:05:16.456Z,3.35
2023-01-01T20:07:42.867Z,3.17
2023-01-01T20:10:09.528Z,3.13
2023-01-01T20:12:35.929Z,3.40
2023-01-01T20:15:02.329Z,3.47
2023-01-01T20:17:30.580Z,3.58
2023-01-01T20:19:57.032Z,3.38
2023-01-01T20:22:23.411Z,3.72
2023-01-01T20:24:49.799Z,3.47
2023-01-01T20:27:26.805Z,3.50
2023-01-01T20:29:54.081Z,3.20
2023-01-01T20:32:21.115Z,3.90
2023-01-01T20:34:47.537Z,3.38
2023-01-01T20:37:32.519Z,3.75
2023-01-01T20:39:58.880Z,3.92
2023-01-01T20:42:26.563Z,3.80
2023-01-01T20:44:52.939Z,3.60
2023-01-01T20:47:19.511Z,3.45
2023-01-01T20:49:45.867Z,3.30
2023-01-01T20:52:12.255Z,3.42
2023-01-01T20:54:40.311Z,3.00
2023-01-01T20:57:06.722Z,3.28
2023-01-01T20:59:36.353Z,3.45
2023-01-01T21:02:06.072Z,3.38
2023-01-01T21:04:32.975Z,2.72
2023-01-01T21:06:59.341Z,3.90
2023-01-01T21:09:25.704Z,3.25
2023-01-01T21:11:52.098Z,3.03
2023-01-01T21:14:19.857Z,3.20
2023-01-01T21:16:49.256Z,2.90
2023-01-01T21:19:24.344Z,3.10
2023-01-01T21:21:55.209Z,3.03
2023-01-01T21:24:25.590Z,3.05
2023-01-01T21:26:54.148Z,3.42
2023-01-01T21:29:23.088Z,3.35
2023-01-01T21:31:54.571Z,3.13
2023-01-01T21:34:43.609Z,3.55
2023-01-01T21:37:50.567Z,3.42
2023-01-01T21:40:40.473Z,3.17
2023-01-01T21:43:31.847Z,3.00
2023-01-01T21:46:07.353Z,3.00
2023-01-01T21:48:36.637Z,3.40
2023-01-01T21:51:13.328Z,3.25
2023-01-01T21:53:42.100Z,3.20
2023-01-01T21:56:22.143Z,3.10
2023-01-01T21:59:06.891Z,3.83
2023-01-01T22:01:41.496Z,3.45
2023-01-01T22:04:10.921Z,2.95
2023-01-01T22:06:39.561Z,3.22
2023-01-01T22:09:17.596Z,3.30
2023-01-01T22:11:45.355Z,3.30
2023-01-01T22:14:14.472Z,3.72
2023-01-01T22:16:41.142Z,4.00
2023-01-01T22:19:12.871Z,3.60
2023-01-01T22:21:40.155Z,3.30
2023-01-01T22:24:20.816Z,3.63
2023-01-01T22:26:47.224Z,3.75
2023-01-01T22:29:22.087Z,3.53
2023-01-01T22:31:49.484Z,4.45
2023-01-01T22:34:22.310Z,3.88
2023-01-01T22:36:48.792Z,4.07
2023-01-01T22:39:27.258Z,4.40
2023-01-01T22:41:53.628Z,4.50
2023-01-01T22:44:20.262Z,3.92
2023-01-01T22:46:46.642Z,3.72
2023-01-01T22:49:19.065Z,3.75
2023-01-01T22:51:46.486Z,4.15
2023-01-01T22:54:12.947Z,4.65
2023-01-01T22:56:39.438Z,3.63
2023-01-01T22:59:05.801Z,3.83
2023-01-01T23:01:32.250Z,3.83
2023-01-01T23:03:58.745Z,3.95
2023-01-01T23:06:25.274Z,4.07
2023-01-01T23:08:51.839Z,4.30
2023-01-01T23:11:18.740Z,4.28
2023-01-01T23:14:08.302Z,3.97
2023-01-01T23:16:35.035Z,4.22
2023-01-01T23:19:01.653Z,4.00
2023-01-01T23:21:29.488Z,4.05
2023-01-01T23:23:57.538Z,4.60
2023-01-01T23:26:25.227Z,4.40
2023-01-01T23:28:52.390Z,4.35
2023-01-01T23:31:24.803Z,4.65
2023-01-01T23:33:52.377Z,4.70
2023-01-01T23:36:18.816Z,3.88
2023-01-01T23:38:45.375Z,4.00
2023-01-01T23:41:11.790Z,4.50
2023-01-01T23:43:43.205Z,4.70
2023-01-01T23:46:10.754Z,4.22
2023-01-01T23:48:37.218Z,4.45
2023-01-01T23:51:03.714Z,3.92
2023-01-01T23:53:30.105Z,3.95
2023-01-01T23:55:56.910Z,3.80
2023-01-01T23:58:23.285Z,3.85
